Madera, CA (93638)

7:48 PM PDT on September 16, 2014 (GMT -0700)
Madera Municipal | Change Station
CLOSE
Current Station
Airport
Location: Madera,
Elevation: 253 ft
Nearby Weather Stations

Elev 253 ft 36.99 °N, 120.11 °W | Updated 1 hour ago

Clear
Clear
93 °F
Feels Like 93 °F
N
7
Wind Variable Wind from NW

Today
High -- | Low -- °F
--% Chance of Precip.
Yesterday
High -- | Low -- °F
Precip. -- in
6:43 AM 7:05 PM
Last Quarter, 40% visible
Pressure 29.75 in
Visibility 10.0 miles
Clouds Clear
Dew Point 51 °F
Humidity 24%
Rainfall 0.00 in
Snow Depth 1 in , 0 in , 0 in
UV 1 out of 12
Pollen 6.80 out of 12
Air Quality Not available.
Flu Activity Not available.
METAR KMAE 170053Z AUTO 31006KT 10SM CLR 34/11 A2976 RMK AO2 SLP074 T03390106

More Conditions Fewer Conditions

Pressure 29.75 in
Visibility 10.0 miles
Clouds Clear
Dew Point 51 °F
Humidity 24%
Rainfall 0.00 in
Snow Depth 1 in , 0 in , 0 in
UV 1 out of 12
Pollen 6.80 out of 12
Air Quality Not available.
Flu Activity Not available.
METAR KMAE 170053Z AUTO 31006KT 10SM CLR 34/11 A2976 RMK AO2 SLP074 T03390106

More Conditions Fewer Conditions

10-Day Weather Forecast

Almanac

Astronomy

Sep. 16, 2014 Rise Set
Actual Time 6:43 AM PDT 7:05 PM PDT
Civil Twilight 6:17 AM PDT 7:31 PM PDT
Nautical Twilight 5:46 AM PDT 8:02 PM PDT
Astronomical Twilight 5:15 AM PDT 8:33 PM PDT
Moon 12:03 AM PDT (9/16) 2:27 PM PDT (9/16)
Length of Visible Light 13h 14m
Length of Day
12h 22m
Tomorrow will be 2m 20s shorter.
Last Quarter, 40% of the Moon is Illuminated
Today
Last Quarter
Sep 24
New
Oct 1
First Quarter
Oct 8
Full
Oct 15
Last Quarter

Today's Extremes

State Highs State Lows

Community

WunderPhotos

Upload Photos

1,753,949 photos uploaded!

Nearby

Air Quality

  Air Quality AQ Index Pollutant
Yesterday Moderate
OZONE
Tuesday Moderate
OZONE
Wednesday Good
OZONE
Thursday Good
OZONE
Friday Good
OZONE
Saturday Good
OZONE
Sunday Good
OZONE

Snow Depth

Station Depth Elevation
Leavitt Meadows 1 in 7200 ft
Hagan's Meadow 0 in 8000 ft
Summit Meadow 0 in 9122 ft
Leavitt Lake 0 in 9400 ft
CSS Lab 2 in 6900 ft

Earthquake Activity

City Distance Mag. Time & Date
Inyokern, California 132 miles 3.2 5:56 PM PDT
2014-09-14
Minimum magnitude displayed is 2.5.

Coastal Water Temperatures

Place Temperature
No Stations Reporting

Nearby Weather Stations